Terminal Aerodrome Forecast
Issued by NWS

Home | Current Version | Previous Version | Text Only | Print | Product List | Glossary On
Versions: 1 2 3 4 5 6 7 8 9 10 11 12 13 14 15 16 17 18 19 20 21 22 23 24 25 26
000
FTUS45 KBOI 260520
TAFMYL
TAF
KMYL 260520Z 2606/2706 VRB06KT P6SM OVC060
     FM260900 16009KT 2SM -SN BKN025 OVC040
     FM262300 17005KT 1/2SM SN OVC010
     FM270300 16006KT 1SM -SN OVC015=

USA.gov is the U.S. government's official web portal to all federal, state and local government web resources and services.